Time;durP1;ratioP1;P1;durP2;ratioP2;P2;SDS_P1;SDS_P2;PMS_P1;PMS_P2;Temp;Humidity;BMP_temperature;BMP_pressure;BME280_temperature;BME280_humidity;BME280_pressure;Samples;Min_cycle;Max_cycle;Signal;HPM_P1;HPM_P2
2022/08/16 00:01:31;;;;;;;10.25;4.65;;;;;;;24.90;44.23;100058.50;5090888;28;20141;-73
2022/08/16 00:03:58;;;;;;;8.50;4.75;;;;;;;24.86;44.17;100046.41;5090796;28;20030;-72
2022/08/16 00:06:24;;;;;;;8.48;4.45;;;;;;;24.86;43.97;100046.41;5090628;28;20035;-71
2022/08/16 00:08:50;;;;;;;6.35;3.85;;;;;;;24.88;44.23;100055.16;5090571;28;20036;-73
2022/08/16 00:11:16;;;;;;;11.27;5.32;;;;;;;24.88;43.99;100049.75;5070566;28;20021;-74
2022/08/16 00:13:42;;;;;;;10.82;4.97;;;;;;;24.87;44.38;100053.47;5070612;28;20031;-72
2022/08/16 00:16:08;;;;;;;10.82;5.60;;;;;;;24.87;44.04;100045.38;5070606;28;20036;-72
2022/08/16 00:18:34;;;;;;;7.63;4.93;;;;;;;24.87;44.21;100056.19;5070760;28;20159;-72
2022/08/16 00:20:59;;;;;;;9.48;4.85;;;;;;;24.86;44.16;100045.53;5070490;28;20067;-72
2022/08/16 00:23:25;;;;;;;12.75;5.57;;;;;;;24.85;44.18;100054.72;5070389;28;20017;-73
2022/08/16 00:25:50;;;;;;;9.00;4.78;;;;;;;24.82;43.95;100048.69;5070446;28;20143;-72
2022/08/16 00:28:16;;;;;;;12.73;5.43;;;;;;;24.85;44.24;100054.72;5070357;28;20145;-73
2022/08/16 00:30:41;;;;;;;7.40;4.40;;;;;;;24.82;44.11;100043.28;5070286;28;20082;-74
2022/08/16 00:33:08;;;;;;;11.23;5.00;;;;;;;24.82;43.72;100039.72;5070338;28;20028;-73
2022/08/16 00:35:35;;;;;;;7.40;4.85;;;;;;;24.80;44.00;100037.22;5069315;28;20032;-74
2022/08/16 00:38:03;;;;;;;6.38;4.70;;;;;;;24.81;43.91;100038.03;5070228;28;20024;-75
2022/08/16 00:40:38;;;;;;;8.00;4.65;;;;;;;24.80;43.91;100052.59;5070103;28;20052;-74
2022/08/16 00:43:07;;;;;;;6.18;4.35;;;;;;;24.76;44.42;100048.66;5070134;28;20107;-73
2022/08/16 00:45:42;;;;;;;8.38;4.65;;;;;;;24.76;44.36;100054.88;5074550;28;20032;-73
2022/08/16 00:48:12;;;;;;;6.45;4.68;;;;;;;24.76;44.17;100054.06;5089075;28;20052;-72
2022/08/16 00:50:39;;;;;;;9.10;4.78;;;;;;;24.74;44.37;100051.53;5082317;28;20028;-74
2022/08/16 00:53:08;;;;;;;8.27;5.05;;;;;;;24.71;44.43;100045.72;5070892;28;20025;-72
2022/08/16 00:55:36;;;;;;;7.45;4.78;;;;;;;24.70;44.28;100055.72;5069806;28;20040;-73
2022/08/16 00:58:02;;;;;;;8.60;4.60;;;;;;;24.70;44.17;100058.41;5069838;28;20254;-73
2022/08/16 01:00:31;;;;;;;9.35;4.53;;;;;;;24.68;44.38;100057.75;5080198;28;20048;-73
2022/08/16 01:03:00;;;;;;;7.28;4.50;;;;;;;24.64;43.98;100049.19;5089824;28;20024;-72
2022/08/16 01:05:27;;;;;;;11.13;4.90;;;;;;;24.63;44.33;100052.91;5089714;28;20094;-72
2022/08/16 01:07:54;;;;;;;8.70;4.68;;;;;;;24.63;44.08;100052.91;5089427;28;20032;-72
2022/08/16 01:10:25;;;;;;;5.85;4.28;;;;;;;24.65;44.32;100055.44;5083434;28;20024;-73
2022/08/16 01:12:50;;;;;;;8.27;3.85;;;;;;;24.61;43.84;100056.88;5089595;28;20035;-72
2022/08/16 01:15:16;;;;;;;6.60;4.40;;;;;;;24.60;44.10;100056.03;5089501;28;20088;-72
2022/08/16 01:17:46;;;;;;;8.82;5.10;;;;;;;24.61;44.19;100060.44;5089554;28;20020;-73
2022/08/16 01:20:14;;;;;;;10.13;4.70;;;;;;;24.63;44.17;100062.91;5089432;28;20027;-72
2022/08/16 01:22:56;;;;;;;8.93;4.43;;;;;;;24.60;43.78;100056.03;5089389;28;20029;-74
2022/08/16 01:25:28;;;;;;;9.65;4.90;;;;;;;24.54;44.26;100056.84;5076712;28;20245;-73
2022/08/16 01:27:57;;;;;;;6.70;5.03;;;;;;;24.52;44.19;100065.16;5069271;28;20033;-72
2022/08/16 01:30:27;;;;;;;10.68;4.47;;;;;;;24.49;44.21;100057.44;5069153;28;20126;-73
2022/08/16 01:32:56;;;;;;;8.75;4.03;;;;;;;24.48;44.44;100063.88;5069198;28;20036;-72
2022/08/16 01:35:34;;;;;;;7.65;4.10;;;;;;;24.48;44.24;100058.47;5080198;28;20020;-71
2022/08/16 01:38:28;;;;;;;8.93;4.13;;;;;;;24.49;44.31;100056.59;5089088;28;20024;-73
2022/08/16 01:41:06;;;;;;;8.30;4.30;;;;;;;24.50;44.53;100066.38;5068880;28;20044;-73
2022/08/16 01:43:33;;;;;;;7.47;5.28;;;;;;;24.47;44.26;100072.22;5068927;28;20208;-73
2022/08/16 01:46:02;;;;;;;12.35;4.75;;;;;;;24.44;44.17;100067.19;5080284;28;20118;-71
2022/08/16 01:48:30;;;;;;;9.25;4.43;;;;;;;24.42;44.53;100067.38;5082065;28;20025;-72
2022/08/16 01:50:58;;;;;;;12.40;4.95;;;;;;;24.40;44.32;100068.63;5070597;28;20150;-72
2022/08/16 01:53:24;;;;;;;9.88;4.47;;;;;;;24.37;44.83;100067.16;5087036;28;20033;-73
2022/08/16 01:55:50;;;;;;;14.30;6.25;;;;;;;24.37;44.64;100067.97;5069764;28;20043;-71
2022/08/16 01:58:16;;;;;;;11.48;4.25;;;;;;;24.36;44.50;100069.00;5067933;28;20025;-72
2022/08/16 02:00:42;;;;;;;10.07;4.18;;;;;;;24.37;44.50;100067.16;5068350;28;20024;-72
2022/08/16 02:03:08;;;;;;;10.15;4.45;;;;;;;24.37;44.36;100067.97;5078963;28;20042;-72
2022/08/16 02:05:33;;;;;;;9.32;4.05;;;;;;;24.38;44.30;100068.81;5074290;28;20134;-72
2022/08/16 02:08:00;;;;;;;8.85;4.93;;;;;;;24.39;44.00;100067.78;5075023;28;20033;-74
2022/08/16 02:10:26;;;;;;;6.60;4.07;;;;;;;24.39;44.07;100073.19;5075295;28;20070;-72
2022/08/16 02:12:52;;;;;;;10.82;5.05;;;;;;;24.37;44.09;100070.69;5088442;28;20020;-72
2022/08/16 02:15:21;;;;;;;6.50;4.28;;;;;;;24.35;43.68;100070.03;5081045;28;20095;-72
2022/08/16 02:17:47;;;;;;;4.82;3.75;;;;;;;24.32;44.16;100073.16;5070220;28;20052;-72
2022/08/16 02:20:14;;;;;;;15.63;4.50;;;;;;;24.30;44.12;100069.81;5068145;28;20097;-71
2022/08/16 02:22:39;;;;;;;8.65;5.32;;;;;;;24.31;44.09;100076.03;5068228;28;20024;-72
2022/08/16 02:25:10;;;;;;;4.35;3.88;;;;;;;24.31;44.02;100076.91;5068120;28;20024;-72
2022/08/16 02:27:40;;;;;;;9.98;3.83;;;;;;;24.29;44.06;100075.41;5080199;28;20027;-72
2022/08/16 02:30:11;;;;;;;9.43;4.55;;;;;;;24.30;43.85;100083.34;5083534;28;20024;-72
2022/08/16 02:32:36;;;;;;;;;;;;;;;24.20;43.95;100078.28;5088438;28;20184;-73
2022/08/16 02:35:03;;;;;;;7.15;3.70;;;;;;;24.18;43.90;100069.53;5077043;28;19960;-74
2022/08/16 02:37:28;;;;;;;4.72;3.63;;;;;;;24.25;44.17;100080.38;5073586;28;20074;-72
2022/08/16 02:39:53;;;;;;;5.25;3.85;;;;;;;24.26;43.89;100090.16;5068346;28;20028;-72
2022/08/16 02:42:19;;;;;;;4.68;3.78;;;;;;;24.26;44.01;100073.13;5067893;28;20013;-74
2022/08/16 02:44:44;;;;;;;20.60;4.22;;;;;;;24.26;44.03;100075.81;5076523;28;20103;-73
2022/08/16 02:47:10;;;;;;;8.02;3.85;;;;;;;24.27;44.05;100085.59;5087889;28;20118;-74
2022/08/16 02:49:35;;;;;;;5.47;3.40;;;;;;;24.25;43.81;100080.38;5087747;28;20051;-73
2022/08/16 02:52:01;;;;;;;9.73;4.10;;;;;;;24.26;43.74;100081.22;5086409;28;20138;-74
2022/08/16 02:54:26;;;;;;;5.88;4.15;;;;;;;24.26;43.68;100082.06;5070896;28;20070;-72
2022/08/16 02:56:52;;;;;;;4.95;3.63;;;;;;;24.28;43.36;100076.44;5087608;28;20275;-73
2022/08/16 02:59:17;;;;;;;7.63;3.97;;;;;;;24.25;43.37;100085.78;5080193;28;20025;-74
2022/08/16 03:01:43;;;;;;;8.57;4.63;;;;;;;24.22;43.88;100088.88;5067582;28;20242;-73
2022/08/16 03:04:09;;;;;;;6.20;4.35;;;;;;;24.21;43.83;100084.50;5067498;28;20025;-74
2022/08/16 03:06:34;;;;;;;5.80;3.83;;;;;;;24.21;43.63;100092.63;5071228;28;20082;-74
2022/08/16 03:09:01;;;;;;;11.63;5.40;;;;;;;24.19;43.86;100090.13;5084520;28;20036;-72
2022/08/16 03:11:27;;;;;;;5.60;4.15;;;;;;;24.21;43.61;100087.22;5085893;28;20222;-71
2022/08/16 03:13:53;;;;;;;11.10;4.00;;;;;;;24.21;44.02;100090.75;5069813;28;20107;-73
2022/08/16 03:16:21;;;;;;;8.52;4.15;;;;;;;24.24;43.78;100086.81;5078567;28;20037;-71
2022/08/16 03:18:47;;;;;;;12.38;4.30;;;;;;;24.24;43.36;100086.81;5087342;28;20039;-72
2022/08/16 03:21:12;;;;;;;6.00;4.10;;;;;;;24.22;43.90;100089.72;5087428;28;20020;-73
2022/08/16 03:23:38;;;;;;;8.23;4.03;;;;;;;24.21;43.96;100092.63;5087333;28;20141;-73
2022/08/16 03:26:04;;;;;;;9.10;4.13;;;;;;;24.22;43.84;100091.59;5081234;28;20246;-72
2022/08/16 03:28:30;;;;;;;11.65;4.10;;;;;;;24.22;43.75;100097.00;5067031;28;20041;-72
2022/08/16 03:30:55;;;;;;;5.85;3.95;;;;;;;24.24;43.71;100100.34;5067395;28;20025;-72
2022/08/16 03:33:21;;;;;;;5.78;3.75;;;;;;;24.25;44.02;100096.59;5067127;28;20172;-73
2022/08/16 03:35:46;;;;;;;7.15;4.18;;;;;;;24.28;43.80;100093.50;5071467;28;20192;-71
2022/08/16 03:38:15;;;;;;;9.25;3.70;;;;;;;24.30;43.53;100094.16;5087300;28;20028;-73
2022/08/16 03:40:41;;;;;;;7.15;4.07;;;;;;;24.35;44.10;100102.50;5087276;28;20192;-73
2022/08/16 03:43:09;;;;;;;5.95;3.83;;;;;;;24.37;43.95;100100.44;5074041;28;20027;-72
2022/08/16 03:45:35;;;;;;;8.63;4.20;;;;;;;24.41;43.78;100100.03;5073881;28;20020;-72
2022/08/16 03:48:03;;;;;;;11.60;4.13;;;;;;;24.41;43.80;100106.28;5078376;28;20086;-72
2022/08/16 03:50:29;;;;;;;9.63;4.22;;;;;;;24.45;43.92;100096.72;5072925;28;20047;-73
2022/08/16 03:52:55;;;;;;;5.68;4.00;;;;;;;24.48;43.85;100100.94;5067034;28;20020;-74
2022/08/16 03:55:21;;;;;;;12.35;4.18;;;;;;;24.47;43.52;100100.06;5067075;28;20025;-74
2022/08/16 03:57:48;;;;;;;9.20;3.83;;;;;;;24.52;43.30;100099.47;5071293;28;20188;-74
2022/08/16 04:00:18;;;;;;;9.60;3.95;;;;;;;24.57;43.65;100094.31;5070298;28;20037;-74
2022/08/16 04:02:44;;;;;;;7.32;4.38;;;;;;;24.63;43.44;100101.63;5086610;28;20087;-74
2022/08/16 04:05:12;;;;;;;7.55;3.45;;;;;;;24.64;43.41;100100.59;5086959;28;20253;-73
2022/08/16 04:07:38;;;;;;;7.28;4.35;;;;;;;24.63;43.22;100098.09;5086120;28;20143;-73
2022/08/16 04:10:09;;;;;;;9.35;4.63;;;;;;;24.60;43.32;100099.34;5075733;28;20024;-74
2022/08/16 04:12:35;;;;;;;12.60;4.78;;;;;;;24.60;43.47;100093.91;5067190;28;20028;-73
2022/08/16 04:15:02;;;;;;;10.73;4.20;;;;;;;24.62;43.27;100091.84;5078579;28;20024;-73
2022/08/16 04:17:28;;;;;;;7.10;3.72;;;;;;;24.65;43.42;100091.44;5075561;28;20173;-72
2022/08/16 04:19:54;;;;;;;8.18;4.38;;;;;;;24.67;43.66;100093.97;5077980;28;20118;-72
2022/08/16 04:22:21;;;;;;;6.75;5.05;;;;;;;24.69;43.26;100091.88;5080132;28;20087;-73
2022/08/16 04:24:47;;;;;;;11.13;4.45;;;;;;;24.70;43.59;100096.31;5086550;28;20238;-72
2022/08/16 04:27:12;;;;;;;11.27;4.60;;;;;;;24.77;43.13;100096.34;5090493;28;20042;-73
2022/08/16 04:29:38;;;;;;;12.52;4.20;;;;;;;24.81;43.43;100105.69;5086608;28;20020;-73
2022/08/16 04:32:03;;;;;;;9.50;4.57;;;;;;;24.80;43.35;100098.63;5074088;28;20253;-72
2022/08/16 04:34:32;;;;;;;11.00;4.60;;;;;;;24.85;43.27;100101.56;5081010;28;20070;-74
2022/08/16 04:36:59;;;;;;;10.57;3.75;;;;;;;24.92;43.26;100102.44;5078586;28;20020;-72
2022/08/16 04:39:25;;;;;;;8.98;4.38;;;;;;;24.98;42.88;100096.19;5090199;28;20031;-73
2022/08/16 04:41:51;;;;;;;10.05;4.10;;;;;;;25.05;42.90;100101.66;5078446;28;20021;-74
2022/08/16 04:44:16;;;;;;;10.68;3.50;;;;;;;25.10;42.80;100107.28;5074469;28;20281;-75
2022/08/16 04:46:42;;;;;;;5.65;3.95;;;;;;;25.19;42.63;100099.81;5084397;28;20052;-74
2022/08/16 04:49:09;;;;;;;10.07;4.88;;;;;;;25.28;42.19;100106.72;5085310;28;20047;-73
2022/08/16 04:51:35;;;;;;;8.80;3.85;;;;;;;25.43;42.32;100095.75;5077979;28;20234;-73
2022/08/16 04:54:00;;;;;;;8.93;4.72;;;;;;;25.62;41.76;100095.16;5086009;28;20020;-73
2022/08/16 04:56:26;;;;;;;12.75;4.80;;;;;;;25.74;41.55;100097.03;5081552;28;20094;-73
2022/08/16 04:58:51;;;;;;;9.25;4.05;;;;;;;25.98;41.26;100104.75;5081568;28;20039;-74
2022/08/16 05:01:17;;;;;;;12.15;3.80;;;;;;;26.29;40.63;100103.31;5080412;28;20020;-73
2022/08/16 05:03:43;;;;;;;7.80;4.28;;;;;;;26.64;40.08;100103.03;5078340;28;20056;-72
2022/08/16 05:06:09;;;;;;;11.02;4.63;;;;;;;26.96;39.61;100101.28;5069831;28;20052;-73
2022/08/16 05:08:35;;;;;;;10.73;4.85;;;;;;;27.21;39.08;100108.66;5084940;28;20068;-71
2022/08/16 05:11:04;;;;;;;14.50;4.38;;;;;;;27.40;38.73;100101.47;5058078;28;20020;-73
2022/08/16 05:13:30;;;;;;;8.77;4.55;;;;;;;27.49;38.14;100098.53;5080561;28;20017;-73
2022/08/16 05:15:56;;;;;;;11.07;4.10;;;;;;;27.53;38.55;100097.84;5073221;28;20217;-72
2022/08/16 05:18:21;;;;;;;11.77;4.70;;;;;;;27.61;38.10;100096.75;5087460;28;20062;-72
2022/08/16 05:20:47;;;;;;;7.28;4.28;;;;;;;27.75;38.41;100096.66;5082520;28;20021;-73
2022/08/16 05:23:13;;;;;;;7.70;4.68;;;;;;;27.88;37.80;100099.25;5070409;28;20100;-74
2022/08/16 05:25:39;;;;;;;11.05;4.40;;;;;;;28.00;37.89;100104.81;5077838;28;20028;-73
2022/08/16 05:28:04;;;;;;;9.63;3.58;;;;;;;28.10;37.49;100096.19;5081303;28;20028;-73
2022/08/16 05:30:30;;;;;;;7.32;4.03;;;;;;;28.16;36.98;100100.75;5087375;28;20196;-75
2022/08/16 05:32:55;;;;;;;10.75;3.90;;;;;;;28.22;36.89;100099.84;5086580;28;20054;-73
2022/08/16 05:35:21;;;;;;;11.15;4.65;;;;;;;28.29;36.62;100100.63;5089080;28;20079;-73
2022/08/16 05:37:46;;;;;;;14.57;5.82;;;;;;;28.38;36.59;100100.31;5082994;28;20021;-73
2022/08/16 05:40:12;;;;;;;11.10;5.05;;;;;;;28.39;36.59;100107.44;5078598;28;20039;-72
2022/08/16 05:42:38;;;;;;;17.55;7.00;;;;;;;28.40;36.59;100095.50;5078902;28;20039;-73
2022/08/16 05:45:05;;;;;;;18.65;5.88;;;;;;;28.45;36.44;100098.38;5080046;28;20087;-72
2022/08/16 05:47:31;;;;;;;17.88;5.55;;;;;;;28.50;36.72;100103.97;5075844;28;20161;-73
2022/08/16 05:49:56;;;;;;;11.75;5.60;;;;;;;28.53;36.53;100105.41;5073946;28;20028;-73
2022/08/16 05:52:21;;;;;;;9.20;5.07;;;;;;;28.55;36.76;100095.94;5082669;28;20039;-74
2022/08/16 05:54:47;;;;;;;10.93;4.75;;;;;;;28.51;36.57;100096.63;5075393;28;20147;-73
2022/08/16 05:57:14;;;;;;;8.63;4.65;;;;;;;28.51;36.94;100105.63;5072244;28;20252;-73
2022/08/16 05:59:39;;;;;;;15.10;4.43;;;;;;;28.47;36.62;100096.25;5083831;28;20222;-73
2022/08/16 06:02:06;;;;;;;9.27;4.28;;;;;;;28.29;36.80;100097.91;5076600;28;20031;-73
2022/08/16 06:04:31;;;;;;;7.63;4.68;;;;;;;28.06;37.31;100093.06;5079933;28;20149;-74
2022/08/16 06:06:57;;;;;;;10.63;4.28;;;;;;;27.78;37.99;100098.94;5081195;28;20032;-72
2022/08/16 06:09:24;;;;;;;16.92;5.47;;;;;;;27.55;37.98;100089.50;5081584;28;20155;-73
2022/08/16 06:11:50;;;;;;;8.18;3.95;;;;;;;27.42;38.62;100088.47;5082294;28;20028;-73
2022/08/16 06:14:15;;;;;;;12.48;4.53;;;;;;;27.34;39.13;100090.66;5071818;28;20052;-72
2022/08/16 06:16:41;;;;;;;6.13;3.75;;;;;;;27.27;38.83;100102.38;5066917;28;20250;-72
2022/08/16 06:19:07;;;;;;;9.40;3.47;;;;;;;27.23;39.40;100089.44;5069405;28;20222;-72
2022/08/16 06:21:32;;;;;;;7.07;4.13;;;;;;;27.21;39.41;100096.97;5079495;28;20016;-72
2022/08/16 06:23:58;;;;;;;10.73;3.80;;;;;;;27.17;39.32;100095.75;5068068;28;20020;-73
2022/08/16 06:26:24;;;;;;;6.95;3.42;;;;;;;27.07;39.43;100096.19;5075892;28;20024;-74
2022/08/16 06:28:49;;;;;;;10.10;4.00;;;;;;;27.06;39.55;100092.66;5076417;28;20035;-73
2022/08/16 06:31:15;;;;;;;7.93;3.47;;;;;;;27.06;39.88;100097.25;5079390;28;20020;-72
2022/08/16 06:33:43;;;;;;;6.70;3.65;;;;;;;27.07;39.84;100099.78;5072909;28;20031;-73
2022/08/16 06:36:10;;;;;;;11.77;3.83;;;;;;;27.07;39.53;100094.34;5076650;28;20035;-74
2022/08/16 06:38:36;;;;;;;6.82;3.38;;;;;;;27.07;39.53;100107.91;5079294;28;20025;-73
2022/08/16 06:41:07;;;;;;;5.05;4.18;;;;;;;27.08;39.00;100100.59;5078231;28;20028;-73
2022/08/16 06:43:32;;;;;;;;;;;;;;;26.96;39.31;100089.59;5079102;28;20024;-72
2022/08/16 06:45:59;;;;;;;7.72;3.30;;;;;;;26.94;39.48;100095.22;5078493;28;19927;-73
2022/08/16 06:48:25;;;;;;;9.80;3.42;;;;;;;26.95;38.89;100098.78;5068664;28;20038;-73
2022/08/16 06:50:51;;;;;;;8.18;3.95;;;;;;;26.93;39.46;100092.72;5071924;28;20025;-74
2022/08/16 06:53:17;;;;;;;9.80;3.45;;;;;;;26.93;39.32;100092.72;5085172;28;20035;-74
2022/08/16 06:55:43;;;;;;;6.75;3.88;;;;;;;26.92;39.25;100093.78;5082308;28;20091;-74
2022/08/16 06:58:09;;;;;;;9.20;3.50;;;;;;;26.92;39.48;100100.03;5077759;28;20033;-74
2022/08/16 07:00:37;;;;;;;6.95;4.47;;;;;;;26.91;39.27;100092.94;5069306;28;20032;-74
2022/08/16 07:03:04;;;;;;;8.13;3.22;;;;;;;26.90;39.20;100087.72;5070718;28;20025;-73
2022/08/16 07:05:30;;;;;;;7.22;3.35;;;;;;;26.90;39.30;100095.88;5075516;28;20027;-73
2022/08/16 07:07:56;;;;;;;6.43;3.30;;;;;;;26.88;39.12;100087.94;5078220;28;20052;-73
2022/08/16 07:10:23;;;;;;;10.27;3.20;;;;;;;26.88;39.22;100087.94;5084168;28;20024;-73
2022/08/16 07:12:49;;;;;;;10.05;3.70;;;;;;;26.88;39.25;100087.94;5079009;28;20075;-73
2022/08/16 07:15:18;;;;;;;12.48;3.30;;;;;;;26.89;39.20;100089.63;5078254;28;20074;-73
2022/08/16 07:17:45;;;;;;;5.30;3.53;;;;;;;26.89;39.22;100089.63;5082201;28;20065;-72
2022/08/16 07:20:12;;;;;;;5.38;3.60;;;;;;;26.91;39.30;100083.97;5074314;28;20013;-72
2022/08/16 07:22:38;;;;;;;9.20;3.97;;;;;;;26.92;39.41;100082.91;5085784;28;20021;-74
2022/08/16 07:25:09;;;;;;;7.50;3.53;;;;;;;26.92;39.55;100089.16;5077435;28;20051;-73
2022/08/16 07:27:35;;;;;;;5.32;3.15;;;;;;;26.92;39.06;100085.63;5068649;28;20028;-72
2022/08/16 07:30:01;;;;;;;6.70;3.25;;;;;;;26.93;39.20;100095.44;5083824;28;20086;-73
2022/08/16 07:32:27;;;;;;;13.20;3.13;;;;;;;26.92;39.01;100088.34;5077199;28;20036;-74
2022/08/16 07:34:53;;;;;;;13.38;3.55;;;;;;;26.93;39.08;100095.44;5068856;28;20036;-73
2022/08/16 07:37:18;;;;;;;4.47;3.13;;;;;;;26.94;38.40;100092.50;5068580;28;20016;-74
2022/08/16 07:39:44;;;;;;;9.98;3.63;;;;;;;26.93;38.58;100093.53;5080143;28;20020;-74
2022/08/16 07:42:11;;;;;;;12.35;2.95;;;;;;;26.93;38.61;100092.72;5068652;28;20017;-74
2022/08/16 07:44:36;;;;;;;10.15;3.08;;;;;;;26.92;38.78;100097.31;5074521;28;20040;-74
2022/08/16 07:47:02;;;;;;;7.82;3.10;;;;;;;26.91;38.57;100095.63;5074077;28;20036;-74
2022/08/16 07:49:27;;;;;;;8.07;2.67;;;;;;;26.90;38.70;100102.16;5076296;28;20066;-73
2022/08/16 07:51:53;;;;;;;13.80;3.35;;;;;;;26.88;38.45;100081.66;5071879;28;20051;-75
2022/08/16 07:54:19;;;;;;;6.63;2.80;;;;;;;26.90;38.25;100101.31;5081494;28;20012;-75
2022/08/16 07:56:44;;;;;;;7.90;2.72;;;;;;;26.87;37.96;100096.28;5071487;28;20024;-74
2022/08/16 07:59:10;;;;;;;8.70;2.70;;;;;;;26.86;38.49;100084.63;5083536;28;20092;-76
2022/08/16 08:01:37;;;;;;;10.48;2.92;;;;;;;26.87;38.46;100089.00;5071902;28;20021;-75
2022/08/16 08:04:03;;;;;;;3.35;2.45;;;;;;;26.89;37.98;100086.06;5071744;28;20028;-75
2022/08/16 08:06:31;;;;;;;5.22;3.33;;;;;;;26.88;38.01;100079.81;5077308;28;20073;-74
2022/08/16 08:08:57;;;;;;;9.77;3.05;;;;;;;26.90;38.27;100079.56;5074634;28;20081;-74
2022/08/16 08:11:23;;;;;;;5.18;3.63;;;;;;;26.91;38.40;100082.06;5083880;28;20052;-75
2022/08/16 08:13:51;;;;;;;7.10;3.60;;;;;;;26.92;38.37;100081.03;5089252;28;20028;-74
2022/08/16 08:16:20;;;;;;;8.73;3.28;;;;;;;26.94;37.74;100076.22;5078126;28;20089;-75
2022/08/16 08:18:46;;;;;;;7.63;3.30;;;;;;;26.95;38.10;100077.06;5082856;28;20020;-74
2022/08/16 08:21:12;;;;;;;8.15;3.30;;;;;;;26.94;38.33;100069.97;5077362;28;20032;-74
2022/08/16 08:23:37;;;;;;;6.40;2.92;;;;;;;26.95;37.97;100077.06;5081168;28;20096;-75
2022/08/16 08:26:03;;;;;;;6.03;3.13;;;;;;;26.96;38.03;100065.16;5076744;28;20040;-74
2022/08/16 08:28:30;;;;;;;5.63;3.05;;;;;;;26.96;37.82;100073.28;5074560;28;20033;-75
2022/08/16 08:31:01;;;;;;;7.63;3.03;;;;;;;26.97;37.94;100080.41;5080254;28;20033;-75
2022/08/16 08:33:26;;;;;;;4.72;3.20;;;;;;;26.95;37.45;100071.63;5083143;28;20070;-75
2022/08/16 08:35:57;;;;;;;10.10;3.90;;;;;;;26.92;37.23;100078.31;5090320;28;20028;-75
2022/08/16 08:38:23;;;;;;;6.38;3.40;;;;;;;26.88;37.45;100073.53;5088483;28;20043;-75
2022/08/16 08:40:48;;;;;;;9.65;3.50;;;;;;;26.88;37.66;100073.53;5076972;28;20032;-75
2022/08/16 08:43:16;;;;;;;5.45;2.83;;;;;;;26.88;37.43;100076.25;5076548;28;20028;-74
2022/08/16 08:45:42;;;;;;;75.15;7.38;;;;;;;26.89;37.78;100072.47;5073710;28;20032;-75
2022/08/16 08:48:07;;;;;;;8.68;2.90;;;;;;;26.90;37.64;100068.72;5071898;28;20024;-74
2022/08/16 08:50:33;;;;;;;8.25;3.13;;;;;;;26.90;37.69;100079.56;5080393;28;20090;-75
2022/08/16 08:53:00;;;;;;;6.70;3.28;;;;;;;26.88;37.09;100076.25;5078666;28;20029;-74
2022/08/16 08:55:26;;;;;;;7.00;3.17;;;;;;;26.89;37.33;100072.47;5081308;28;20191;-74
2022/08/16 08:57:52;;;;;;;10.85;3.45;;;;;;;26.90;37.09;100068.72;5088117;28;20039;-73
2022/08/16 09:00:21;;;;;;;9.40;3.30;;;;;;;26.91;37.07;100063.06;5087297;28;20024;-73
2022/08/16 09:02:49;;;;;;;6.60;2.80;;;;;;;26.91;37.13;100073.91;5074883;28;20078;-74
2022/08/16 09:05:16;;;;;;;8.40;2.67;;;;;;;26.92;37.20;100074.78;5085090;28;20025;-74
2022/08/16 09:07:42;;;;;;;3.65;2.85;;;;;;;26.93;37.10;100079.97;5081887;28;20033;-75
2022/08/16 09:10:08;;;;;;;7.07;3.25;;;;;;;26.95;37.07;100074.34;5084078;28;20031;-75
2022/08/16 09:12:34;;;;;;;5.93;2.60;;;;;;;26.94;37.16;100072.69;5077462;28;20017;-75
2022/08/16 09:15:00;;;;;;;7.65;2.97;;;;;;;26.95;37.36;100074.34;5077967;28;20021;-74
2022/08/16 09:17:27;;;;;;;5.18;2.67;;;;;;;26.96;37.32;100071.41;5083278;28;20025;-74
2022/08/16 09:19:54;;;;;;;5.72;2.90;;;;;;;26.96;37.67;100070.59;5071031;28;20017;-74
2022/08/16 09:22:20;;;;;;;12.48;2.80;;;;;;;26.98;37.42;100073.91;5089281;28;20040;-74
2022/08/16 09:24:46;;;;;;;8.52;2.78;;;;;;;27.02;37.14;100079.75;5087201;28;20306;-74
2022/08/16 09:27:11;;;;;;;8.15;2.90;;;;;;;27.00;37.23;100085.38;5069174;28;20021;-74
2022/08/16 09:29:37;;;;;;;4.93;2.70;;;;;;;27.02;37.36;100075.13;5072538;28;20118;-75
2022/08/16 09:32:03;;;;;;;7.57;2.65;;;;;;;27.03;37.22;100078.69;5084033;28;20082;-74
2022/08/16 09:34:28;;;;;;;9.00;3.00;;;;;;;27.03;37.29;100073.25;5084382;28;20313;-75
2022/08/16 09:36:56;;;;;;;3.95;2.78;;;;;;;27.04;37.35;100066.78;5078567;28;20180;-76
2022/08/16 09:39:24;;;;;;;4.88;3.50;;;;;;;27.05;37.50;100077.41;5069501;28;20236;-74
2022/08/16 09:41:50;;;;;;;5.05;2.50;;;;;;;27.06;37.36;100081.81;5085369;28;20098;-75
2022/08/16 09:44:19;;;;;;;12.10;2.85;;;;;;;27.09;37.40;100066.94;5075385;28;20060;-74
2022/08/16 09:46:45;;;;;;;6.57;3.28;;;;;;;27.10;37.25;100065.91;5082271;28;20081;-73
2022/08/16 09:49:11;;;;;;;7.43;3.20;;;;;;;27.14;37.32;100063.56;5079347;28;20029;-73
2022/08/16 09:51:37;;;;;;;4.15;2.85;;;;;;;27.14;37.14;100063.56;5075953;28;20028;-73
2022/08/16 09:54:04;;;;;;;5.15;2.88;;;;;;;27.15;37.19;100063.38;5079290;28;20032;-74
2022/08/16 09:56:32;;;;;;;4.13;3.25;;;;;;;27.17;37.30;100060.44;5073932;28;20279;-74
2022/08/16 09:59:00;;;;;;;4.18;2.95;;;;;;;27.17;37.61;100053.13;5084749;28;20074;-70
2022/08/16 10:01:25;;;;;;;10.05;3.45;;;;;;;27.18;37.66;100054.78;5082849;28;20025;-75
2022/08/16 10:03:52;;;;;;;10.00;2.92;;;;;;;27.18;37.45;100043.09;5079354;28;20057;-75
2022/08/16 10:06:20;;;;;;;5.38;3.83;;;;;;;27.18;37.50;100060.22;5086200;28;20201;-74
2022/08/16 10:08:47;;;;;;;8.75;3.47;;;;;;;27.18;37.33;100051.22;5076422;28;20032;-72
2022/08/16 10:13:57;;;;;;;10.20;3.78;;;;;;;27.21;36.99;100054.34;5085232;28;20181;-72
2022/08/16 10:16:38;;;;;;;10.25;3.15;;;;;;;27.20;36.44;100052.69;5076948;28;20032;-71
2022/08/16 10:19:28;;;;;;;;;;;;;;;27.11;36.93;100054.84;5088160;28;20141;-71
2022/08/16 10:21:56;;;;;;;7.70;3.95;;;;;;;27.13;36.89;100051.88;5068361;28;19897;-70
2022/08/16 10:24:22;;;;;;;6.25;2.95;;;;;;;27.16;36.76;100058.75;5081633;28;20092;-72
2022/08/16 10:26:48;;;;;;;8.13;3.38;;;;;;;27.16;36.85;100047.91;5088022;28;20024;-71
2022/08/16 10:29:14;;;;;;;6.50;2.75;;;;;;;27.14;36.48;100050.00;5086910;28;20084;-73
2022/08/16 10:31:40;;;;;;;12.73;3.72;;;;;;;27.12;36.33;100052.94;5067937;28;20024;-71
2022/08/16 10:34:06;;;;;;;4.13;3.20;;;;;;;27.09;36.21;100048.78;5075913;28;20106;-71
2022/08/16 10:36:32;;;;;;;9.65;3.28;;;;;;;27.07;36.08;100050.88;5077858;28;20028;-72
2022/08/16 10:38:57;;;;;;;11.48;3.70;;;;;;;27.08;36.17;100040.84;5078310;28;20030;-71
2022/08/16 10:41:23;;;;;;;7.03;3.33;;;;;;;27.09;36.49;100046.06;5069415;28;20021;-72
2022/08/16 10:43:50;;;;;;;6.35;3.40;;;;;;;27.12;36.23;100050.22;5076801;28;20016;-71
2022/08/16 10:46:16;;;;;;;8.68;3.10;;;;;;;27.13;36.51;100049.19;5087840;28;20050;-71
2022/08/16 10:48:44;;;;;;;5.68;3.38;;;;;;;27.16;36.40;100056.03;5086131;28;20181;-71
2022/08/16 10:51:11;;;;;;;7.75;3.85;;;;;;;27.17;36.59;100046.84;5069994;28;20056;-72
2022/08/16 10:53:38;;;;;;;4.55;3.00;;;;;;;27.15;36.70;100049.78;5066881;28;20096;-71
2022/08/16 10:56:07;;;;;;;6.80;3.83;;;;;;;27.16;36.60;100043.31;5070234;28;20040;-71
2022/08/16 10:58:33;;;;;;;9.02;3.97;;;;;;;27.16;36.71;100039.75;5083332;28;20032;-71
2022/08/16 11:00:59;;;;;;;7.60;3.47;;;;;;;27.18;36.75;100034.94;5067594;28;20046;-72
2022/08/16 11:03:27;;;;;;;8.48;3.03;;;;;;;27.20;36.70;100046.41;5076425;28;20092;-72
2022/08/16 11:05:52;;;;;;;5.25;3.55;;;;;;;27.22;36.65;100038.88;5085540;28;20035;-72
2022/08/16 11:08:18;;;;;;;4.70;3.30;;;;;;;27.23;36.36;100030.50;5105725;28;20054;-72
2022/08/16 11:10:45;;;;;;;4.30;3.10;;;;;;;27.22;36.41;100028.84;5087952;28;20033;-71
2022/08/16 11:13:17;;;;;;;5.85;4.05;;;;;;;27.23;36.26;100025.06;5076175;28;20202;-72
2022/08/16 11:15:43;;;;;;;4.57;3.22;;;;;;;27.25;36.63;100033.03;5087545;28;20016;-71
2022/08/16 11:18:10;;;;;;;9.77;3.55;;;;;;;27.24;36.55;100026.75;5087514;28;20168;-71
2022/08/16 11:20:36;;;;;;;6.05;4.13;;;;;;;27.26;36.39;100023.81;5087444;28;20028;-72
2022/08/16 11:23:03;;;;;;;5.75;3.97;;;;;;;27.28;36.29;100021.69;5072752;28;20043;-72
2022/08/16 11:25:30;;;;;;;7.03;3.08;;;;;;;27.29;36.54;100031.50;5067294;28;20024;-72